createdAt,value
2018-07-23T00:00:00.503Z,9.30
2018-07-23T00:02:29.882Z,10.07
2018-07-23T00:04:59.277Z,12.97
2018-07-23T00:07:28.654Z,9.30
2018-07-23T00:09:58.060Z,16.57
2018-07-23T00:12:27.529Z,7.97
2018-07-23T00:14:56.848Z,8.10
2018-07-23T00:17:25.930Z,10.13
2018-07-23T00:19:55.506Z,6.30
2018-07-23T00:22:24.862Z,12.70
2018-07-23T00:24:54.226Z,8.83
2018-07-23T00:27:23.617Z,6.20
2018-07-23T00:29:53.337Z,5.10
2018-07-23T00:32:25.525Z,4.97
2018-07-23T00:34:54.871Z,3.93
2018-07-23T00:37:24.237Z,4.60
2018-07-23T00:39:53.342Z,4.27
2018-07-23T00:42:22.711Z,6.27
2018-07-23T00:44:52.659Z,4.03
2018-07-23T00:47:22.019Z,6.70
2018-07-23T00:49:51.452Z,7.60
2018-07-23T00:52:20.830Z,5.13
2018-07-23T00:54:50.230Z,5.87
2018-07-23T00:57:19.578Z,5.20
2018-07-23T00:59:48.934Z,4.77
2018-07-23T01:02:18.310Z,3.80
2018-07-23T01:04:47.657Z,3.00
2018-07-23T01:07:17.055Z,3.53
2018-07-23T01:09:46.546Z,3.53
2018-07-23T01:12:36.711Z,8.70
2018-07-23T01:15:06.395Z,7.20
2018-07-23T01:17:35.484Z,6.37
2018-07-23T01:20:05.202Z,5.03
2018-07-23T01:22:34.583Z,4.53
2018-07-23T01:25:04.139Z,4.40
2018-07-23T01:27:34.050Z,3.60
2018-07-23T01:33:39.751Z,4.37
2018-07-23T01:36:09.147Z,3.83
2018-07-23T01:38:38.468Z,16.97
2018-07-23T01:41:08.023Z,4.00
2018-07-23T01:43:37.662Z,3.60
2018-07-23T01:46:19.923Z,3.20
2018-07-23T01:49:33.412Z,5.97
2018-07-23T01:52:02.774Z,5.40
2018-07-23T01:54:32.530Z,5.47
2018-07-23T01:57:02.031Z,12.00
2018-07-23T01:59:31.374Z,13.90
2018-07-23T02:02:00.763Z,10.30
2018-07-23T02:04:30.095Z,14.83
2018-07-23T02:06:59.430Z,9.23
2018-07-23T02:09:28.783Z,12.40
2018-07-23T02:11:58.160Z,11.77
2018-07-23T02:14:27.870Z,11.10
2018-07-23T02:16:57.329Z,10.40
2018-07-23T02:19:26.705Z,7.23
2018-07-23T02:21:56.133Z,8.87
2018-07-23T02:24:25.196Z,6.67
2018-07-23T02:26:54.549Z,10.33
2018-07-23T02:29:23.899Z,7.17
2018-07-23T02:31:53.363Z,7.27
2018-07-23T02:34:22.679Z,5.17
2018-07-23T02:36:52.047Z,5.70
2018-07-23T02:39:33.768Z,5.87
2018-07-23T02:42:03.098Z,4.30
2018-07-23T02:44:32.268Z,13.67
2018-07-23T02:47:01.704Z,35.37
2018-07-23T02:49:31.050Z,15.30
2018-07-23T02:52:00.385Z,11.73
2018-07-23T02:54:29.785Z,15.10
2018-07-23T02:56:59.155Z,12.27
2018-07-23T02:59:28.538Z,13.00
2018-07-23T03:01:57.890Z,15.93
2018-07-23T03:04:27.259Z,23.40
2018-07-23T03:06:56.618Z,18.40
2018-07-23T03:09:25.724Z,18.77
2018-07-23T03:11:55.102Z,16.33
2018-07-23T03:14:24.466Z,23.70
2018-07-23T03:16:53.830Z,14.47
2018-07-23T03:19:23.193Z,15.47
2018-07-23T03:21:52.667Z,39.47
2018-07-23T03:24:21.959Z,43.03
2018-07-23T03:26:51.363Z,31.10
2018-07-23T03:29:20.788Z,53.33
2018-07-23T03:32:08.383Z,50.57
2018-07-23T03:34:43.540Z,54.77
2018-07-23T03:37:13.102Z,50.67
2018-07-23T03:39:44.958Z,51.67
2018-07-23T03:42:17.379Z,55.07
2018-07-23T03:44:55.190Z,54.90
2018-07-23T03:47:38.101Z,45.17
2018-07-23T03:50:13.286Z,49.90
2018-07-23T03:52:45.689Z,50.30
2018-07-23T03:55:18.899Z,54.23
2018-07-23T03:57:56.321Z,44.97
2018-07-23T04:00:29.577Z,43.67
2018-07-23T04:02:58.746Z,44.13
2018-07-23T04:05:28.137Z,54.20
2018-07-23T04:07:57.546Z,42.60
2018-07-23T04:10:26.962Z,43.10
2018-07-23T04:12:56.367Z,39.27
2018-07-23T04:15:26.186Z,46.90
2018-07-23T04:18:11.172Z,45.80
2018-07-23T04:24:24.590Z,37.17
2018-07-23T04:27:06.034Z,35.57
2018-07-23T04:29:35.529Z,38.67
2018-07-23T04:32:05.021Z,35.40
2018-07-23T04:34:35.636Z,40.03
2018-07-23T04:37:05.046Z,36.73
2018-07-23T04:39:37.475Z,37.47
2018-07-23T04:42:07.538Z,37.47
2018-07-23T04:44:37.868Z,36.57
2018-07-23T04:47:08.975Z,33.53
2018-07-23T04:49:39.979Z,40.23
2018-07-23T04:52:10.073Z,35.97
2018-07-23T04:54:43.345Z,33.80
2018-07-23T04:57:16.642Z,30.70
2018-07-23T04:59:52.217Z,31.53
2018-07-23T05:02:25.055Z,32.80
2018-07-23T05:04:54.524Z,28.00
2018-07-23T05:07:23.718Z,35.47
2018-07-23T05:09:53.200Z,21.50
2018-07-23T05:12:22.570Z,23.00
2018-07-23T05:14:51.953Z,30.23
2018-07-23T05:17:21.318Z,21.70
2018-07-23T05:19:50.714Z,22.37
2018-07-23T05:22:25.998Z,25.47
2018-07-23T05:24:59.574Z,23.43
2018-07-23T05:27:29.893Z,27.90
2018-07-23T05:29:59.289Z,25.03
2018-07-23T05:32:28.686Z,26.60
2018-07-23T05:34:58.212Z,29.73
2018-07-23T05:37:29.821Z,27.97
2018-07-23T05:39:59.378Z,28.10
2018-07-23T05:42:36.436Z,25.27
2018-07-23T05:45:07.033Z,22.93
2018-07-23T05:47:36.466Z,17.33
2018-07-23T05:50:22.096Z,17.87
2018-07-23T05:52:51.538Z,18.43
2018-07-23T05:55:34.107Z,16.93
2018-07-23T05:58:05.252Z,13.80
2018-07-23T06:01:39.996Z,14.00
2018-07-23T06:04:09.081Z,12.13
2018-07-23T06:06:38.339Z,12.87
2018-07-23T06:09:09.690Z,16.70
2018-07-23T06:11:39.033Z,12.60
2018-07-23T06:14:08.129Z,14.07
2018-07-23T06:16:37.601Z,14.07
2018-07-23T06:19:06.940Z,10.37
2018-07-23T06:21:36.417Z,12.23
2018-07-23T06:24:06.443Z,10.67
2018-07-23T06:26:36.190Z,9.73
2018-07-23T06:29:05.770Z,14.97
2018-07-23T06:31:35.137Z,22.03
2018-07-23T06:34:04.801Z,10.17
2018-07-23T06:36:33.957Z,11.80
2018-07-23T06:39:03.391Z,8.50
2018-07-23T06:41:33.110Z,12.37
2018-07-23T06:44:02.498Z,7.50
2018-07-23T06:46:31.919Z,8.90
2018-07-23T06:49:06.064Z,13.47
2018-07-23T06:51:39.811Z,6.63
2018-07-23T06:54:25.907Z,7.07
2018-07-23T06:57:01.989Z,7.50
2018-07-23T06:59:31.398Z,7.83
2018-07-23T07:02:05.842Z,7.33
2018-07-23T07:04:35.210Z,9.77
2018-07-23T07:07:05.819Z,6.80
2018-07-23T07:09:37.906Z,7.87
2018-07-23T07:12:09.492Z,7.93
2018-07-23T07:14:41.837Z,7.03
2018-07-23T07:17:23.034Z,12.00
2018-07-23T07:19:58.613Z,10.73
2018-07-23T07:22:36.926Z,7.73
2018-07-23T07:25:29.640Z,7.40
2018-07-23T07:27:59.106Z,7.77
2018-07-23T07:30:28.536Z,10.50
2018-07-23T07:32:57.867Z,7.87
2018-07-23T07:35:27.229Z,8.47
2018-07-23T07:38:34.975Z,7.37
2018-07-23T07:41:14.578Z,8.27
2018-07-23T07:43:44.222Z,8.63
2018-07-23T07:46:18.753Z,7.30
2018-07-23T07:48:48.150Z,5.30
2018-07-23T07:54:21.096Z,7.60
2018-07-23T07:56:57.928Z,3.90
2018-07-23T07:59:27.640Z,7.53
2018-07-23T08:01:57.029Z,4.50
2018-07-23T08:04:26.405Z,5.03
2018-07-23T08:06:55.996Z,12.90
2018-07-23T08:09:25.359Z,5.97
2018-07-23T08:11:54.729Z,5.10
2018-07-23T08:14:24.102Z,5.10
2018-07-23T08:17:01.380Z,7.23
2018-07-23T08:19:37.097Z,4.57
2018-07-23T08:22:13.829Z,5.43
2018-07-23T08:24:45.879Z,5.03
2018-07-23T08:27:17.322Z,5.27
2018-07-23T08:29:46.864Z,6.10
2018-07-23T08:32:16.178Z,5.10
2018-07-23T08:34:45.574Z,4.77
2018-07-23T08:37:15.967Z,4.67
2018-07-23T08:39:47.337Z,5.93
2018-07-23T08:42:17.721Z,5.80
2018-07-23T08:44:47.110Z,6.00
2018-07-23T08:47:16.493Z,6.90
2018-07-23T08:49:49.874Z,8.63
2018-07-23T08:52:23.051Z,7.80
2018-07-23T08:54:54.813Z,8.27
2018-07-23T08:57:28.325Z,10.73
2018-07-23T09:00:01.964Z,11.77
2018-07-23T09:02:31.641Z,10.10
2018-07-23T09:05:13.416Z,9.13
2018-07-23T09:07:44.805Z,7.63
2018-07-23T09:10:18.363Z,5.27
2018-07-23T09:12:47.782Z,4.87
2018-07-23T09:15:17.814Z,4.83
2018-07-23T09:17:52.138Z,7.20
2018-07-23T09:20:21.565Z,7.07
2018-07-23T09:22:51.694Z,8.57
2018-07-23T09:25:21.114Z,5.97
2018-07-23T09:27:51.090Z,5.57
2018-07-23T09:30:26.766Z,6.03
2018-07-23T09:32:56.675Z,5.90
2018-07-23T09:35:27.764Z,9.00
2018-07-23T09:38:07.443Z,8.17
2018-07-23T09:40:39.034Z,5.93
2018-07-23T09:43:16.688Z,6.50
2018-07-23T09:45:47.284Z,6.03
2018-07-23T09:48:18.572Z,4.43
2018-07-23T09:50:49.425Z,8.73
2018-07-23T09:53:23.246Z,6.97
2018-07-23T09:55:54.876Z,6.30
2018-07-23T09:58:25.013Z,8.37
2018-07-23T10:00:58.186Z,5.93
2018-07-23T10:03:31.652Z,5.57
2018-07-23T10:06:01.950Z,3.80
2018-07-23T10:08:39.755Z,8.30
2018-07-23T10:11:09.520Z,7.07
2018-07-23T10:13:39.000Z,5.87
2018-07-23T10:16:08.849Z,4.97
2018-07-23T10:18:38.542Z,10.73
2018-07-23T10:21:09.286Z,6.10
2018-07-23T10:23:38.637Z,5.00
2018-07-23T10:26:08.127Z,5.73
2018-07-23T10:32:49.978Z,6.07
2018-07-23T10:35:20.314Z,6.07
2018-07-23T10:37:50.294Z,4.20
2018-07-23T10:40:24.398Z,5.73
2018-07-23T10:42:56.514Z,5.87
2018-07-23T10:45:26.518Z,6.13
2018-07-23T10:47:57.033Z,4.30
2018-07-23T10:50:26.454Z,12.13
2018-07-23T10:53:00.023Z,4.47
2018-07-23T10:55:31.902Z,9.70
2018-07-23T10:58:01.604Z,7.33
2018-07-23T11:00:31.329Z,6.97
2018-07-23T11:03:00.805Z,6.37
2018-07-23T11:05:30.617Z,4.27
2018-07-23T11:07:59.950Z,5.47
2018-07-23T11:10:29.339Z,5.97
2018-07-23T11:12:58.987Z,6.23
2018-07-23T11:15:28.770Z,5.63
2018-07-23T11:17:58.950Z,5.10
2018-07-23T11:20:28.990Z,4.87
2018-07-23T11:22:58.527Z,11.57
2018-07-23T11:25:39.745Z,6.20
2018-07-23T11:28:01.065Z,7.70
2018-07-23T11:30:59.406Z,6.60
2018-07-23T11:33:29.123Z,4.30
2018-07-23T11:36:03.482Z,4.30
2018-07-23T11:38:36.128Z,4.50
2018-07-23T11:41:06.709Z,8.50
2018-07-23T11:43:36.930Z,7.43
2018-07-23T11:46:06.319Z,5.10
2018-07-23T11:48:35.742Z,7.00
2018-07-23T11:51:05.158Z,4.23
2018-07-23T11:53:34.932Z,5.00
2018-07-23T11:56:04.294Z,3.80
2018-07-23T11:58:33.820Z,5.37
2018-07-23T12:01:03.181Z,4.57
2018-07-23T12:03:32.539Z,5.53
2018-07-23T12:06:01.918Z,4.23
2018-07-23T12:08:31.279Z,3.83
2018-07-23T12:11:00.683Z,4.00
2018-07-23T12:13:30.438Z,4.90
2018-07-23T12:15:59.928Z,6.70
2018-07-23T12:18:29.470Z,7.53
2018-07-23T12:20:58.814Z,5.03
2018-07-23T12:23:28.148Z,5.17
2018-07-23T12:25:57.583Z,5.27
2018-07-23T12:28:26.937Z,4.80
2018-07-23T12:30:56.377Z,4.73
2018-07-23T12:33:25.891Z,3.37
2018-07-23T12:35:55.364Z,4.33
2018-07-23T12:38:25.073Z,7.10
2018-07-23T12:40:54.449Z,4.30
2018-07-23T12:43:23.838Z,4.30
2018-07-23T12:45:53.273Z,4.37
2018-07-23T12:48:22.630Z,11.63
2018-07-23T12:50:52.109Z,4.73
2018-07-23T12:53:21.469Z,4.47
2018-07-23T12:55:50.889Z,4.23
2018-07-23T12:58:21.196Z,3.77
2018-07-23T13:00:50.658Z,3.87
2018-07-23T13:03:19.837Z,4.10
2018-07-23T13:05:49.312Z,3.57
2018-07-23T13:08:18.679Z,5.03
2018-07-23T13:10:48.127Z,4.03
2018-07-23T13:13:17.512Z,4.60
2018-07-23T13:15:47.234Z,6.63
2018-07-23T13:18:16.621Z,3.70
2018-07-23T13:20:46.008Z,2.93
2018-07-23T13:23:15.906Z,5.77
2018-07-23T13:25:45.116Z,6.13
2018-07-23T13:28:14.461Z,2.67
2018-07-23T13:30:44.126Z,3.53
2018-07-23T13:33:13.490Z,2.87
2018-07-23T13:35:43.014Z,3.40
2018-07-23T13:38:12.663Z,4.40
2018-07-23T13:40:42.123Z,3.60
2018-07-23T13:43:11.558Z,3.07
2018-07-23T13:45:40.911Z,4.97
2018-07-23T13:48:10.064Z,2.43
2018-07-23T13:50:39.446Z,2.50
2018-07-23T13:53:08.845Z,2.33
2018-07-23T13:55:38.322Z,5.00
2018-07-23T13:58:07.639Z,3.00
2018-07-23T14:00:37.654Z,2.60
2018-07-23T14:03:07.005Z,4.57
2018-07-23T14:05:36.732Z,3.97
2018-07-23T14:08:06.773Z,2.50
2018-07-23T14:10:37.130Z,4.00
2018-07-23T14:13:07.374Z,2.77
2018-07-23T14:15:36.756Z,2.70
2018-07-23T14:18:06.455Z,8.00
2018-07-23T14:20:37.134Z,2.80
2018-07-23T14:23:07.347Z,2.60
2018-07-23T14:25:36.653Z,4.60
2018-07-23T14:28:06.281Z,4.40
2018-07-23T14:30:36.213Z,4.20
2018-07-23T14:33:06.855Z,2.30
2018-07-23T14:35:37.075Z,3.13
2018-07-23T14:38:06.905Z,3.07
2018-07-23T14:40:38.242Z,2.90
2018-07-23T14:43:07.738Z,2.47
2018-07-23T14:45:37.589Z,2.20
2018-07-23T14:48:07.084Z,2.70
2018-07-23T14:50:36.478Z,3.33
2018-07-23T14:53:05.897Z,2.30
2018-07-23T14:55:35.366Z,3.00
2018-07-23T14:58:04.800Z,4.93
2018-07-23T15:00:34.809Z,12.73
2018-07-23T15:03:04.218Z,2.30
2018-07-23T15:05:35.958Z,4.20
2018-07-23T15:08:05.499Z,4.60
2018-07-23T15:10:35.242Z,4.87
2018-07-23T15:13:04.778Z,2.33
2018-07-23T15:15:34.218Z,2.80
2018-07-23T15:18:03.605Z,2.27
2018-07-23T15:20:33.642Z,3.83
2018-07-23T15:23:04.138Z,7.43
2018-07-23T15:25:34.550Z,5.50
2018-07-23T15:28:05.450Z,3.10
2018-07-23T15:30:35.217Z,2.63
2018-07-23T15:33:04.668Z,3.63
2018-07-23T15:35:34.069Z,2.57
2018-07-23T15:38:03.817Z,3.03
2018-07-23T15:40:33.201Z,3.93
2018-07-23T15:43:03.395Z,3.40
2018-07-23T15:45:32.773Z,3.47
2018-07-23T15:48:04.533Z,3.50
2018-07-23T15:50:33.848Z,4.90
2018-07-23T15:53:03.192Z,4.90
2018-07-23T15:55:32.534Z,4.30
2018-07-23T15:58:01.893Z,4.73
2018-07-23T16:00:32.785Z,3.53
2018-07-23T16:03:02.720Z,3.20
2018-07-23T16:05:32.085Z,2.93
2018-07-23T16:08:01.522Z,4.83
2018-07-23T16:10:30.918Z,3.97
2018-07-23T16:13:00.939Z,3.33
2018-07-23T16:15:31.242Z,6.43
2018-07-23T16:18:01.217Z,6.40
2018-07-23T16:20:30.407Z,4.60
2018-07-23T16:23:00.238Z,7.23
2018-07-23T16:25:30.646Z,3.50
2018-07-23T16:28:00.266Z,8.60
2018-07-23T16:30:30.051Z,3.30
2018-07-23T16:32:59.574Z,3.97
2018-07-23T16:35:29.058Z,4.97
2018-07-23T16:37:58.857Z,6.90
2018-07-23T16:40:28.259Z,3.50
2018-07-23T16:42:57.707Z,3.87
2018-07-23T16:45:27.302Z,3.20
2018-07-23T16:47:56.693Z,6.10
2018-07-23T16:50:27.257Z,3.40
2018-07-23T16:52:58.887Z,4.10
2018-07-23T16:55:29.221Z,6.83
2018-07-23T16:57:59.225Z,6.80
2018-07-23T17:00:28.747Z,4.10
2018-07-23T17:02:58.182Z,5.27
2018-07-23T17:05:27.553Z,3.90
2018-07-23T17:07:56.977Z,3.20
2018-07-23T17:10:26.457Z,2.57
2018-07-23T17:12:56.146Z,3.03
2018-07-23T17:15:25.489Z,3.50
2018-07-23T17:17:54.919Z,5.23
2018-07-23T17:20:24.184Z,4.50
2018-07-23T17:22:53.571Z,3.77
2018-07-23T17:25:22.989Z,3.07
2018-07-23T17:27:53.534Z,5.07
2018-07-23T17:30:23.361Z,3.50
2018-07-23T17:32:53.490Z,7.23
2018-07-23T17:35:22.834Z,3.30
2018-07-23T17:37:52.242Z,10.70
2018-07-23T17:40:22.119Z,2.87
2018-07-23T17:42:51.878Z,3.50
2018-07-23T17:45:21.402Z,6.07
2018-07-23T17:47:50.909Z,5.03
2018-07-23T17:50:20.307Z,6.93
2018-07-23T17:52:49.685Z,5.73
2018-07-23T17:55:20.737Z,5.53
2018-07-23T17:57:51.168Z,4.47
2018-07-23T18:00:21.025Z,3.63
2018-07-23T18:02:50.832Z,5.70
2018-07-23T18:05:20.523Z,2.80
2018-07-23T18:07:53.509Z,10.93
2018-07-23T18:10:23.885Z,3.60
2018-07-23T18:12:53.911Z,3.07
2018-07-23T18:15:23.333Z,3.43
2018-07-23T18:17:52.476Z,9.90
2018-07-23T18:20:22.158Z,3.70
2018-07-23T18:22:53.633Z,2.90
2018-07-23T18:25:23.142Z,2.90
2018-07-23T18:27:52.597Z,11.93
2018-07-23T18:30:22.001Z,2.90
2018-07-23T18:32:51.444Z,7.80
2018-07-23T18:35:21.406Z,2.37
2018-07-23T18:37:50.797Z,8.97
2018-07-23T18:40:20.277Z,3.80
2018-07-23T18:42:50.313Z,2.60
2018-07-23T18:45:20.270Z,2.60
2018-07-23T18:47:49.790Z,3.63
2018-07-23T18:50:18.833Z,2.87
2018-07-23T18:52:49.005Z,3.17
2018-07-23T18:55:18.360Z,2.53
2018-07-23T18:57:47.839Z,3.30
2018-07-23T19:00:17.264Z,2.53
2018-07-23T19:02:46.345Z,5.20
2018-07-23T19:05:15.745Z,2.37
2018-07-23T19:07:46.169Z,4.30
2018-07-23T19:10:16.966Z,2.80
2018-07-23T19:12:46.417Z,5.07
2018-07-23T19:15:18.897Z,5.07
2018-07-23T19:17:49.529Z,3.00
2018-07-23T19:20:19.109Z,3.40
2018-07-23T19:22:48.574Z,6.70
2018-07-23T19:25:17.938Z,3.53
2018-07-23T19:27:47.436Z,2.77
2018-07-23T19:30:17.018Z,5.40
2018-07-23T19:32:46.914Z,2.80
2018-07-23T19:35:17.159Z,3.60
2018-07-23T19:37:46.505Z,2.70
2018-07-23T19:40:16.781Z,3.87
2018-07-23T19:42:46.150Z,2.87
2018-07-23T19:45:15.982Z,3.30
2018-07-23T19:47:45.473Z,3.83
2018-07-23T19:50:15.498Z,3.20
2018-07-23T19:52:44.911Z,4.67
2018-07-23T19:55:14.731Z,3.03
2018-07-23T19:57:44.182Z,7.47
2018-07-23T20:00:14.046Z,5.07
2018-07-23T20:02:43.497Z,4.83
2018-07-23T20:05:13.210Z,6.70
2018-07-23T20:07:42.802Z,4.87
2018-07-23T20:10:12.033Z,4.80
2018-07-23T20:12:43.146Z,3.43
2018-07-23T20:15:12.550Z,11.43
2018-07-23T20:17:42.590Z,3.53
2018-07-23T20:20:11.992Z,3.40
2018-07-23T20:22:41.413Z,2.73
2018-07-23T20:25:10.790Z,4.50
2018-07-23T20:27:40.178Z,2.60
2018-07-23T20:30:11.083Z,3.57
2018-07-23T20:32:41.170Z,6.50
2018-07-23T20:35:11.166Z,3.13
2018-07-23T20:37:40.490Z,4.60
2018-07-23T20:40:10.847Z,4.13
2018-07-23T20:42:40.241Z,3.77
2018-07-23T20:45:10.076Z,7.50
2018-07-23T20:47:39.797Z,5.33
2018-07-23T20:50:09.479Z,7.13
2018-07-23T20:52:38.958Z,10.07
2018-07-23T20:55:08.434Z,7.33
2018-07-23T20:57:37.889Z,4.10
2018-07-23T21:00:08.454Z,4.30
2018-07-23T21:02:37.913Z,3.80
2018-07-23T21:05:07.339Z,6.27
2018-07-23T21:07:36.729Z,4.10
2018-07-23T21:10:06.531Z,3.90
2018-07-23T21:12:36.766Z,6.03
2018-07-23T21:15:08.283Z,9.60
2018-07-23T21:17:37.669Z,8.47
2018-07-23T21:20:08.539Z,4.90
2018-07-23T21:22:38.014Z,3.50
2018-07-23T21:25:07.543Z,4.97
2018-07-23T21:27:37.003Z,7.93
2018-07-23T21:30:07.311Z,6.87
2018-07-23T21:32:36.386Z,7.87
2018-07-23T21:35:06.424Z,6.10
2018-07-23T21:37:35.577Z,9.03
2018-07-23T21:40:06.073Z,3.80
2018-07-23T21:42:35.477Z,5.13
2018-07-23T21:45:05.662Z,8.87
2018-07-23T21:47:38.742Z,4.27
2018-07-23T21:50:09.109Z,3.80
2018-07-23T21:52:38.538Z,4.13
2018-07-23T21:55:08.217Z,4.20
2018-07-23T21:57:37.636Z,5.10
2018-07-23T22:00:12.557Z,4.50
2018-07-23T22:02:41.967Z,4.80
2018-07-23T22:05:11.709Z,4.37
2018-07-23T22:07:41.106Z,6.50
2018-07-23T22:10:11.221Z,5.13
2018-07-23T22:12:40.567Z,4.30
2018-07-23T22:15:11.253Z,4.30
2018-07-23T22:17:40.895Z,7.20
2018-07-23T22:20:10.383Z,4.50
2018-07-23T22:22:39.766Z,4.50
2018-07-23T22:25:09.117Z,6.57
2018-07-23T22:27:38.455Z,4.23
2018-07-23T22:30:07.797Z,4.60
2018-07-23T22:32:37.136Z,13.80
2018-07-23T22:35:06.538Z,4.57
2018-07-23T22:37:35.898Z,6.23
2018-07-23T22:40:05.372Z,5.50
2018-07-23T22:42:35.031Z,6.43
2018-07-23T22:45:04.765Z,4.53
2018-07-23T22:47:34.498Z,4.53
2018-07-23T22:50:03.881Z,6.70
2018-07-23T22:52:34.154Z,11.60
2018-07-23T22:55:03.622Z,10.13
2018-07-23T22:57:32.961Z,4.27
2018-07-23T23:00:03.409Z,6.87
2018-07-23T23:02:32.754Z,9.03
2018-07-23T23:05:02.110Z,7.73
2018-07-23T23:07:31.490Z,8.13
2018-07-23T23:10:00.826Z,5.30
2018-07-23T23:12:30.186Z,6.60
2018-07-23T23:14:59.579Z,4.20
2018-07-23T23:17:28.942Z,7.97
2018-07-23T23:19:58.278Z,7.30
2018-07-23T23:22:28.358Z,6.60
2018-07-23T23:24:58.077Z,13.67
2018-07-23T23:27:27.490Z,5.20
2018-07-23T23:29:57.099Z,6.97
2018-07-23T23:32:26.514Z,5.10
2018-07-23T23:34:55.895Z,4.83
2018-07-23T23:37:25.211Z,5.57
2018-07-23T23:39:55.971Z,4.70
2018-07-23T23:42:25.724Z,5.00
2018-07-23T23:44:55.091Z,5.60
2018-07-23T23:47:24.180Z,5.90
2018-07-23T23:49:53.534Z,7.80
2018-07-23T23:52:22.893Z,5.40
2018-07-23T23:54:52.241Z,4.50
2018-07-23T23:57:21.599Z,8.07
2018-07-23T23:59:51.740Z,6.83
